sensor_id;sensor_type;location;lat;lon;timestamp;pressure;altitude;pressure_sealevel;temperature;humidity
72438;BME280;60444;43.534;-5.674;2024-01-06T00:00:34;101819.28;;;11.50;100.00
72438;BME280;60444;43.534;-5.674;2024-01-06T00:03:00;101813.91;;;11.49;100.00
72438;BME280;60444;43.534;-5.674;2024-01-06T00:05:25;101813.91;;;11.49;100.00
72438;BME280;60444;43.534;-5.674;2024-01-06T00:07:51;101819.13;;;11.55;100.00
72438;BME280;60444;43.534;-5.674;2024-01-06T00:10:17;101826.16;;;11.59;100.00
72438;BME280;60444;43.534;-5.674;2024-01-06T00:12:42;101784.44;;;11.40;100.00
72438;BME280;60444;43.534;-5.674;2024-01-06T00:15:08;101819.00;;;11.58;100.00
72438;BME280;60444;43.534;-5.674;2024-01-06T00:17:34;101818.88;;;11.61;100.00
72438;BME280;60444;43.534;-5.674;2024-01-06T00:19:59;101803.84;;;11.52;100.00
72438;BME280;60444;43.534;-5.674;2024-01-06T00:22:27;101809.38;;;11.49;100.00
72438;BME280;60444;43.534;-5.674;2024-01-06T00:24:53;101812.03;;;11.51;100.00
72438;BME280;60444;43.534;-5.674;2024-01-06T00:27:18;101793.34;;;11.43;100.00
72438;BME280;60444;43.534;-5.674;2024-01-06T00:29:44;101802.88;;;11.53;100.00
72438;BME280;60444;43.534;-5.674;2024-01-06T00:32:09;101794.13;;;11.47;100.00
72438;BME280;60444;43.534;-5.674;2024-01-06T00:34:35;101805.59;;;11.53;100.00
72438;BME280;60444;43.534;-5.674;2024-01-06T00:37:00;101805.72;;;11.50;100.00
72438;BME280;60444;43.534;-5.674;2024-01-06T00:39:26;101811.97;;;11.52;100.00
72438;BME280;60444;43.534;-5.674;2024-01-06T00:41:54;101840.34;;;11.42;100.00
72438;BME280;60444;43.534;-5.674;2024-01-06T00:44:19;101835.53;;;11.26;100.00
72438;BME280;60444;43.534;-5.674;2024-01-06T00:46:45;101843.66;;;11.26;100.00
72438;BME280;60444;43.534;-5.674;2024-01-06T00:49:10;101852.69;;;11.25;100.00
72438;BME280;60444;43.534;-5.674;2024-01-06T00:51:36;101861.13;;;11.42;100.00
72438;BME280;60444;43.534;-5.674;2024-01-06T00:54:01;101854.81;;;11.41;100.00
72438;BME280;60444;43.534;-5.674;2024-01-06T00:56:27;101853.56;;;11.52;100.00
72438;BME280;60444;43.534;-5.674;2024-01-06T00:58:52;101839.78;;;11.33;100.00
72438;BME280;60444;43.534;-5.674;2024-01-06T01:01:18;101855.16;;;11.32;100.00
72438;BME280;60444;43.534;-5.674;2024-01-06T01:03:43;101861.00;;;11.45;100.00
72438;BME280;60444;43.534;-5.674;2024-01-06T01:06:09;101874.50;;;11.46;100.00
72438;BME280;60444;43.534;-5.674;2024-01-06T01:08:34;101877.53;;;11.37;100.00
72438;BME280;60444;43.534;-5.674;2024-01-06T01:11:00;101899.06;;;11.42;100.00
72438;BME280;60444;43.534;-5.674;2024-01-06T01:13:25;101918.63;;;11.50;100.00
72438;BME280;60444;43.534;-5.674;2024-01-06T01:15:51;101909.50;;;11.52;100.00
72438;BME280;60444;43.534;-5.674;2024-01-06T01:18:17;101923.06;;;11.52;100.00
72438;BME280;60444;43.534;-5.674;2024-01-06T01:20:42;101914.94;;;11.52;100.00
72438;BME280;60444;43.534;-5.674;2024-01-06T01:23:08;101881.06;;;11.39;100.00
72438;BME280;60444;43.534;-5.674;2024-01-06T01:25:33;101909.56;;;11.51;100.00
72438;BME280;60444;43.534;-5.674;2024-01-06T01:27:59;101902.38;;;11.50;100.00
72438;BME280;60444;43.534;-5.674;2024-01-06T01:30:24;101906.09;;;11.47;100.00
72438;BME280;60444;43.534;-5.674;2024-01-06T01:32:50;101904.34;;;11.45;100.00
72438;BME280;60444;43.534;-5.674;2024-01-06T01:35:15;101924.16;;;11.47;100.00
72438;BME280;60444;43.534;-5.674;2024-01-06T01:37:41;101923.19;;;11.49;100.00
72438;BME280;60444;43.534;-5.674;2024-01-06T01:40:07;101896.41;;;11.40;100.00
72438;BME280;60444;43.534;-5.674;2024-01-06T01:42:33;101914.94;;;11.52;100.00
72438;BME280;60444;43.534;-5.674;2024-01-06T01:44:59;101884.69;;;11.40;100.00
72438;BME280;60444;43.534;-5.674;2024-01-06T01:47:24;101915.91;;;11.50;100.00
72438;BME280;60444;43.534;-5.674;2024-01-06T01:49:51;101915.88;;;11.52;100.00
72438;BME280;60444;43.534;-5.674;2024-01-06T01:52:17;101906.09;;;11.47;100.00
72438;BME280;60444;43.534;-5.674;2024-01-06T01:54:44;101908.16;;;11.39;100.00
72438;BME280;60444;43.534;-5.674;2024-01-06T01:57:11;101928.53;;;11.51;100.00
72438;BME280;60444;43.534;-5.674;2024-01-06T01:59:38;101916.28;;;11.39;100.00
72438;BME280;60444;43.534;-5.674;2024-01-06T02:02:04;101922.66;;;11.38;100.00
72438;BME280;60444;43.534;-5.674;2024-01-06T02:04:29;101913.59;;;11.39;100.00
72438;BME280;60444;43.534;-5.674;2024-01-06T02:06:55;101907.31;;;11.39;100.00
72438;BME280;60444;43.534;-5.674;2024-01-06T02:09:20;101926.72;;;11.52;100.00
72438;BME280;60444;43.534;-5.674;2024-01-06T02:11:48;101906.34;;;11.40;100.00
72438;BME280;60444;43.534;-5.674;2024-01-06T02:14:13;101919.69;;;11.46;100.00
72438;BME280;60444;43.534;-5.674;2024-01-06T02:16:39;101907.06;;;11.45;100.00
72438;BME280;60444;43.534;-5.674;2024-01-06T02:19:05;101920.53;;;11.48;100.00
72438;BME280;60444;43.534;-5.674;2024-01-06T02:21:35;101916.16;;;11.44;100.00
72438;BME280;60444;43.534;-5.674;2024-01-06T02:24:06;101905.38;;;11.42;100.00
72438;BME280;60444;43.534;-5.674;2024-01-06T02:26:32;101914.53;;;11.38;100.00
72438;BME280;60444;43.534;-5.674;2024-01-06T02:29:00;101926.03;;;11.45;100.00
72438;BME280;60444;43.534;-5.674;2024-01-06T02:31:27;101920.63;;;11.45;100.00
72438;BME280;60444;43.534;-5.674;2024-01-06T02:33:52;101937.66;;;11.48;100.00
72438;BME280;60444;43.534;-5.674;2024-01-06T02:36:18;101930.63;;;11.43;100.00
72438;BME280;60444;43.534;-5.674;2024-01-06T02:38:43;101935.06;;;11.45;100.00
72438;BME280;60444;43.534;-5.674;2024-01-06T02:41:09;101927.03;;;11.42;100.00
72438;BME280;60444;43.534;-5.674;2024-01-06T02:43:34;101917.19;;;11.40;100.00
72438;BME280;60444;43.534;-5.674;2024-01-06T02:46:02;101926.41;;;11.34;100.00
72438;BME280;60444;43.534;-5.674;2024-01-06T02:48:28;101941.44;;;11.43;100.00
72438;BME280;60444;43.534;-5.674;2024-01-06T02:50:56;101944.22;;;11.41;100.00
72438;BME280;60444;43.534;-5.674;2024-01-06T02:53:22;101951.38;;;11.44;100.00
72438;BME280;60444;43.534;-5.674;2024-01-06T02:55:47;101960.41;;;11.43;100.00
72438;BME280;60444;43.534;-5.674;2024-01-06T02:58:13;101934.66;;;11.31;100.00
72438;BME280;60444;43.534;-5.674;2024-01-06T03:00:38;101923.94;;;11.27;100.00
72438;BME280;60444;43.534;-5.674;2024-01-06T03:03:04;101945.22;;;11.39;100.00
72438;BME280;60444;43.534;-5.674;2024-01-06T03:05:29;101906.84;;;11.26;100.00
72438;BME280;60444;43.534;-5.674;2024-01-06T03:07:55;101923.69;;;11.34;100.00
72438;BME280;60444;43.534;-5.674;2024-01-06T03:10:20;101925.44;;;11.35;100.00
72438;BME280;60444;43.534;-5.674;2024-01-06T03:12:46;101919.22;;;11.33;100.00
72438;BME280;60444;43.534;-5.674;2024-01-06T03:15:11;101950.34;;;11.48;100.00
72438;BME280;60444;43.534;-5.674;2024-01-06T03:17:37;101971.06;;;11.49;100.00
72438;BME280;60444;43.534;-5.674;2024-01-06T03:20:03;101995.81;;;11.38;100.00
72438;BME280;60444;43.534;-5.674;2024-01-06T03:22:29;101952.53;;;11.35;100.00
72438;BME280;60444;43.534;-5.674;2024-01-06T03:24:55;101981.88;;;11.49;100.00
72438;BME280;60444;43.534;-5.674;2024-01-06T03:27:20;101973.03;;;11.44;100.00
72438;BME280;60444;43.534;-5.674;2024-01-06T03:29:46;101969.63;;;11.37;100.00
72438;BME280;60444;43.534;-5.674;2024-01-06T03:32:11;101982.94;;;11.45;100.00
72438;BME280;60444;43.534;-5.674;2024-01-06T03:34:37;101994.72;;;11.44;100.00
72438;BME280;60444;43.534;-5.674;2024-01-06T03:37:03;101991.22;;;11.40;100.00
72438;BME280;60444;43.534;-5.674;2024-01-06T03:39:28;101982.50;;;11.31;100.00
72438;BME280;60444;43.534;-5.674;2024-01-06T03:41:54;102004.22;;;11.29;100.00
72438;BME280;60444;43.534;-5.674;2024-01-06T03:44:19;102020.91;;;11.16;100.00
72438;BME280;60444;43.534;-5.674;2024-01-06T03:46:45;101999.34;;;11.13;100.00
72438;BME280;60444;43.534;-5.674;2024-01-06T03:49:10;102022.41;;;11.26;100.00
72438;BME280;60444;43.534;-5.674;2024-01-06T03:51:36;102028.78;;;11.23;100.00
72438;BME280;60444;43.534;-5.674;2024-01-06T03:54:01;102002.72;;;11.21;100.00
72438;BME280;60444;43.534;-5.674;2024-01-06T03:56:26;101989.19;;;11.21;100.00
72438;BME280;60444;43.534;-5.674;2024-01-06T03:58:52;101988.22;;;11.22;100.00
72438;BME280;60444;43.534;-5.674;2024-01-06T04:01:17;101979.81;;;11.31;100.00
72438;BME280;60444;43.534;-5.674;2024-01-06T04:03:43;101961.75;;;11.31;100.00
72438;BME280;60444;43.534;-5.674;2024-01-06T04:06:09;101972.41;;;11.36;100.00
72438;BME280;60444;43.534;-5.674;2024-01-06T04:08:36;101965.41;;;11.29;100.00
72438;BME280;60444;43.534;-5.674;2024-01-06T04:11:01;102000.03;;;11.47;100.00
72438;BME280;60444;43.534;-5.674;2024-01-06T04:13:27;101971.56;;;11.34;100.00
72438;BME280;60444;43.534;-5.674;2024-01-06T04:15:53;101984.78;;;11.43;100.00
72438;BME280;60444;43.534;-5.674;2024-01-06T04:18:21;101996.41;;;11.48;100.00
72438;BME280;60444;43.534;-5.674;2024-01-06T04:20:47;101983.09;;;11.40;100.00
72438;BME280;60444;43.534;-5.674;2024-01-06T04:23:12;101981.16;;;11.44;100.00
72438;BME280;60444;43.534;-5.674;2024-01-06T04:25:37;101968.00;;;11.33;100.00
72438;BME280;60444;43.534;-5.674;2024-01-06T04:28:03;101968.91;;;11.32;100.00
72438;BME280;60444;43.534;-5.674;2024-01-06T04:30:29;101991.06;;;11.45;100.00
72438;BME280;60444;43.534;-5.674;2024-01-06T04:32:54;101992.78;;;11.47;100.00
72438;BME280;60444;43.534;-5.674;2024-01-06T04:35:20;101965.16;;;11.36;100.00
72438;BME280;60444;43.534;-5.674;2024-01-06T04:37:47;101989.06;;;11.50;100.00
72438;BME280;60444;43.534;-5.674;2024-01-06T04:40:13;101989.19;;;11.47;100.00
72438;BME280;60444;43.534;-5.674;2024-01-06T04:42:38;101990.06;;;11.47;100.00
72438;BME280;60444;43.534;-5.674;2024-01-06T04:45:04;101985.69;;;11.43;100.00
72438;BME280;60444;43.534;-5.674;2024-01-06T04:47:30;101977.75;;;11.37;100.00
72438;BME280;60444;43.534;-5.674;2024-01-06T04:49:56;101985.63;;;11.45;100.00
72438;BME280;60444;43.534;-5.674;2024-01-06T04:52:22;101987.63;;;11.40;100.00
72438;BME280;60444;43.534;-5.674;2024-01-06T04:54:48;102008.19;;;11.45;100.00
72438;BME280;60444;43.534;-5.674;2024-01-06T04:57:13;101973.53;;;11.29;100.00
72438;BME280;60444;43.534;-5.674;2024-01-06T04:59:40;101985.16;;;11.32;100.00
72438;BME280;60444;43.534;-5.674;2024-01-06T05:02:06;102002.84;;;11.44;100.00
72438;BME280;60444;43.534;-5.674;2024-01-06T05:04:31;101982.56;;;11.29;100.00
72438;BME280;60444;43.534;-5.674;2024-01-06T05:06:58;102011.75;;;11.47;100.00
72438;BME280;60444;43.534;-5.674;2024-01-06T05:09:25;102010.97;;;11.44;100.00
72438;BME280;60444;43.534;-5.674;2024-01-06T05:11:50;102010.75;;;11.50;100.00
72438;BME280;60444;43.534;-5.674;2024-01-06T05:14:16;102019.81;;;11.49;100.00
72438;BME280;60444;43.534;-5.674;2024-01-06T05:16:41;102000.31;;;11.38;100.00
72438;BME280;60444;43.534;-5.674;2024-01-06T05:19:07;102025.28;;;11.47;100.00
72438;BME280;60444;43.534;-5.674;2024-01-06T05:21:34;102021.50;;;11.53;100.00
72438;BME280;60444;43.534;-5.674;2024-01-06T05:23:59;102026.09;;;11.51;100.00
72438;BME280;60444;43.534;-5.674;2024-01-06T05:26:25;102008.56;;;11.61;100.00
72438;BME280;60444;43.534;-5.674;2024-01-06T05:28:51;102005.78;;;11.63;100.00
72438;BME280;60444;43.534;-5.674;2024-01-06T05:31:17;102012.41;;;11.54;100.00
72438;BME280;60444;43.534;-5.674;2024-01-06T05:33:42;102005.44;;;11.47;100.00
72438;BME280;60444;43.534;-5.674;2024-01-06T05:36:08;102031.50;;;11.51;100.00
72438;BME280;60444;43.534;-5.674;2024-01-06T05:38:33;102004.97;;;11.34;100.00
72438;BME280;60444;43.534;-5.674;2024-01-06T05:40:59;102029.81;;;11.47;100.00
72438;BME280;60444;43.534;-5.674;2024-01-06T05:43:25;102024.47;;;11.45;100.00
72438;BME280;60444;43.534;-5.674;2024-01-06T05:45:50;102015.91;;;11.31;100.00
72438;BME280;60444;43.534;-5.674;2024-01-06T05:48:16;102026.44;;;11.40;100.00
72438;BME280;60444;43.534;-5.674;2024-01-06T05:50:42;102035.34;;;11.44;100.00
72438;BME280;60444;43.534;-5.674;2024-01-06T05:53:08;102038.78;;;11.49;100.00
72438;BME280;60444;43.534;-5.674;2024-01-06T05:55:34;102035.28;;;11.45;100.00
72438;BME280;60444;43.534;-5.674;2024-01-06T05:57:59;102050.56;;;11.48;100.00
72438;BME280;60444;43.534;-5.674;2024-01-06T06:00:26;102027.59;;;11.32;100.00
72438;BME280;60444;43.534;-5.674;2024-01-06T06:02:52;102051.50;;;11.47;100.00
72438;BME280;60444;43.534;-5.674;2024-01-06T06:05:18;102040.81;;;11.42;100.00
72438;BME280;60444;43.534;-5.674;2024-01-06T06:07:43;102054.50;;;11.38;100.00
72438;BME280;60444;43.534;-5.674;2024-01-06T06:10:10;102042.28;;;11.25;100.00
72438;BME280;60444;43.534;-5.674;2024-01-06T06:12:37;102035.09;;;11.24;100.00
72438;BME280;60444;43.534;-5.674;2024-01-06T06:15:03;102033.53;;;11.17;100.00
72438;BME280;60444;43.534;-5.674;2024-01-06T06:17:30;102063.59;;;11.37;100.00
72438;BME280;60444;43.534;-5.674;2024-01-06T06:19:56;102044.97;;;11.26;100.00
72438;BME280;60444;43.534;-5.674;2024-01-06T06:22:22;102028.13;;;11.17;100.00
72438;BME280;60444;43.534;-5.674;2024-01-06T06:25:06;102080.03;;;11.31;100.00
72438;BME280;60444;43.534;-5.674;2024-01-06T06:27:33;102082.78;;;11.29;100.00
72438;BME280;60444;43.534;-5.674;2024-01-06T06:29:58;102068.41;;;11.27;100.00
72438;BME280;60444;43.534;-5.674;2024-01-06T06:32:24;102088.03;;;11.34;100.00
72438;BME280;60444;43.534;-5.674;2024-01-06T06:34:50;102096.16;;;11.34;100.00
72438;BME280;60444;43.534;-5.674;2024-01-06T06:37:15;102070.50;;;11.18;100.00
72438;BME280;60444;43.534;-5.674;2024-01-06T06:39:41;102079.69;;;11.12;100.00
72438;BME280;60444;43.534;-5.674;2024-01-06T06:42:09;102096.84;;;11.13;100.00
72438;BME280;60444;43.534;-5.674;2024-01-06T06:44:35;102081.53;;;11.12;100.00
72438;BME280;60444;43.534;-5.674;2024-01-06T06:47:00;102101.97;;;11.22;100.00
72438;BME280;60444;43.534;-5.674;2024-01-06T06:49:26;102103.22;;;11.10;100.00
72438;BME280;60444;43.534;-5.674;2024-01-06T06:51:51;102095.63;;;10.94;100.00
72438;BME280;60444;43.534;-5.674;2024-01-06T06:54:17;102117.66;;;11.11;100.00
72438;BME280;60444;43.534;-5.674;2024-01-06T06:56:43;102120.25;;;11.14;100.00
72438;BME280;60444;43.534;-5.674;2024-01-06T06:59:08;102126.50;;;11.17;100.00
72438;BME280;60444;43.534;-5.674;2024-01-06T07:01:34;102125.59;;;11.17;100.00
72438;BME280;60444;43.534;-5.674;2024-01-06T07:04:03;102122.06;;;11.15;100.00
72438;BME280;60444;43.534;-5.674;2024-01-06T07:06:29;102101.97;;;10.93;100.00
72438;BME280;60444;43.534;-5.674;2024-01-06T07:08:55;102118.78;;;11.04;100.00
72438;BME280;60444;43.534;-5.674;2024-01-06T07:11:21;102124.09;;;11.07;100.00
72438;BME280;60444;43.534;-5.674;2024-01-06T07:13:47;102135.81;;;11.07;100.00
72438;BME280;60444;43.534;-5.674;2024-01-06T07:16:12;102142.78;;;11.16;100.00
72438;BME280;60444;43.534;-5.674;2024-01-06T07:18:37;102148.13;;;11.19;100.00
72438;BME280;60444;43.534;-5.674;2024-01-06T07:21:06;102135.88;;;11.06;100.00
72438;BME280;60444;43.534;-5.674;2024-01-06T07:23:32;102147.34;;;11.14;100.00
72438;BME280;60444;43.534;-5.674;2024-01-06T07:25:58;102147.41;;;11.12;100.00
72438;BME280;60444;43.534;-5.674;2024-01-06T07:28:23;102165.22;;;11.21;100.00
72438;BME280;60444;43.534;-5.674;2024-01-06T07:30:49;102158.00;;;11.20;100.00
72438;BME280;60444;43.534;-5.674;2024-01-06T07:33:14;102163.25;;;11.26;100.00
72438;BME280;60444;43.534;-5.674;2024-01-06T07:35:40;102147.50;;;11.09;100.00
72438;BME280;60444;43.534;-5.674;2024-01-06T07:38:09;102173.34;;;11.19;100.00
72438;BME280;60444;43.534;-5.674;2024-01-06T07:40:36;102165.28;;;11.18;100.00
72438;BME280;60444;43.534;-5.674;2024-01-06T07:43:01;102165.38;;;11.15;100.00
72438;BME280;60444;43.534;-5.674;2024-01-06T07:45:27;102167.34;;;11.10;100.00
72438;BME280;60444;43.534;-5.674;2024-01-06T07:47:53;102166.34;;;10.82;100.00
72438;BME280;60444;43.534;-5.674;2024-01-06T07:50:18;102180.16;;;11.03;100.00
72438;BME280;60444;43.534;-5.674;2024-01-06T07:52:44;102179.38;;;11.00;100.00
72438;BME280;60444;43.534;-5.674;2024-01-06T07:55:09;102183.03;;;10.99;100.00
72438;BME280;60444;43.534;-5.674;2024-01-06T07:57:35;102196.34;;;11.05;100.00
72438;BME280;60444;43.534;-5.674;2024-01-06T08:00:00;102190.13;;;11.01;100.00
72438;BME280;60444;43.534;-5.674;2024-01-06T08:02:27;102192.94;;;10.98;100.00
72438;BME280;60444;43.534;-5.674;2024-01-06T08:04:52;102206.22;;;11.07;100.00
72438;BME280;60444;43.534;-5.674;2024-01-06T08:07:19;102208.88;;;11.09;100.00
72438;BME280;60444;43.534;-5.674;2024-01-06T08:09:44;102200.00;;;11.04;100.00
72438;BME280;60444;43.534;-5.674;2024-01-06T08:12:10;102180.47;;;10.93;100.00
72438;BME280;60444;43.534;-5.674;2024-01-06T08:14:35;102216.25;;;11.04;100.00
72438;BME280;60444;43.534;-5.674;2024-01-06T08:17:01;102226.97;;;11.08;100.00
72438;BME280;60444;43.534;-5.674;2024-01-06T08:19:26;102224.31;;;11.05;100.00
72438;BME280;60444;43.534;-5.674;2024-01-06T08:21:53;102214.72;;;10.95;100.00
72438;BME280;60444;43.534;-5.674;2024-01-06T08:24:19;102224.59;;;10.96;100.00
72438;BME280;60444;43.534;-5.674;2024-01-06T08:26:44;102239.63;;;11.08;100.00
72438;BME280;60444;43.534;-5.674;2024-01-06T08:29:10;102242.38;;;11.06;100.00
72438;BME280;60444;43.534;-5.674;2024-01-06T08:31:36;102241.31;;;11.12;100.00
72438;BME280;60444;43.534;-5.674;2024-01-06T08:34:01;102249.28;;;11.16;100.00
72438;BME280;60444;43.534;-5.674;2024-01-06T08:36:27;102253.78;;;11.17;100.00
72438;BME280;60444;43.534;-5.674;2024-01-06T08:38:53;102235.09;;;11.08;100.00
72438;BME280;60444;43.534;-5.674;2024-01-06T08:41:18;102231.44;;;11.09;100.00
72438;BME280;60444;43.534;-5.674;2024-01-06T08:43:44;102245.53;;;11.22;100.00
72438;BME280;60444;43.534;-5.674;2024-01-06T08:46:10;102231.22;;;11.17;100.00
72438;BME280;60444;43.534;-5.674;2024-01-06T08:48:35;102214.25;;;11.10;100.00
72438;BME280;60444;43.534;-5.674;2024-01-06T08:51:01;102256.94;;;11.33;100.00
72438;BME280;60444;43.534;-5.674;2024-01-06T08:53:26;102235.66;;;11.19;100.00
72438;BME280;60444;43.534;-5.674;2024-01-06T08:55:52;102239.19;;;11.21;100.00
72438;BME280;60444;43.534;-5.674;2024-01-06T08:58:17;102255.13;;;11.32;100.00
72438;BME280;60444;43.534;-5.674;2024-01-06T09:00:43;102265.72;;;11.41;100.00
72438;BME280;60444;43.534;-5.674;2024-01-06T09:03:09;102261.19;;;11.41;100.00
72438;BME280;60444;43.534;-5.674;2024-01-06T09:05:35;102283.00;;;11.37;100.00
72438;BME280;60444;43.534;-5.674;2024-01-06T09:08:01;102274.00;;;11.04;100.00
72438;BME280;60444;43.534;-5.674;2024-01-06T09:10:26;102271.72;;;10.89;100.00
72438;BME280;60444;43.534;-5.674;2024-01-06T09:12:54;102293.72;;;11.09;100.00
72438;BME280;60444;43.534;-5.674;2024-01-06T09:15:20;102282.84;;;11.11;100.00
72438;BME280;60444;43.534;-5.674;2024-01-06T09:17:45;102299.63;;;11.23;100.00
72438;BME280;60444;43.534;-5.674;2024-01-06T09:20:11;102288.00;;;11.20;100.00
72438;BME280;60444;43.534;-5.674;2024-01-06T09:22:36;102307.66;;;11.28;100.00
72438;BME280;60444;43.534;-5.674;2024-01-06T09:25:02;102292.41;;;11.24;100.00
72438;BME280;60444;43.534;-5.674;2024-01-06T09:27:28;102283.53;;;11.19;100.00
72438;BME280;60444;43.534;-5.674;2024-01-06T09:29:54;102323.56;;;11.40;100.00
72438;BME280;60444;43.534;-5.674;2024-01-06T09:32:19;102317.28;;;11.38;100.00
72438;BME280;60444;43.534;-5.674;2024-01-06T09:34:45;102318.03;;;11.43;100.00
72438;BME280;60444;43.534;-5.674;2024-01-06T09:37:10;102312.63;;;11.43;100.00
72438;BME280;60444;43.534;-5.674;2024-01-06T09:39:36;102290.34;;;11.33;100.00
72438;BME280;60444;43.534;-5.674;2024-01-06T09:42:02;102327.69;;;11.53;100.00
72438;BME280;60444;43.534;-5.674;2024-01-06T09:44:28;102314.22;;;11.50;100.00
72438;BME280;60444;43.534;-5.674;2024-01-06T09:46:54;102312.50;;;11.47;100.00
72438;BME280;60444;43.534;-5.674;2024-01-06T09:49:23;102329.25;;;11.62;100.00
72438;BME280;60444;43.534;-5.674;2024-01-06T09:51:53;102331.00;;;11.64;100.00
72438;BME280;60444;43.534;-5.674;2024-01-06T09:54:23;102334.53;;;11.68;100.00
72438;BME280;60444;43.534;-5.674;2024-01-06T09:56:50;102306.03;;;11.53;100.00
72438;BME280;60444;43.534;-5.674;2024-01-06T09:59:18;102325.50;;;11.67;100.00
72438;BME280;60444;43.534;-5.674;2024-01-06T10:01:44;102329.97;;;11.68;100.00
72438;BME280;60444;43.534;-5.674;2024-01-06T10:04:10;102336.19;;;11.73;100.00
72438;BME280;60444;43.534;-5.674;2024-01-06T10:06:36;102322.78;;;11.67;100.00
72438;BME280;60444;43.534;-5.674;2024-01-06T10:09:01;102346.75;;;11.81;100.00
72438;BME280;60444;43.534;-5.674;2024-01-06T10:11:27;102349.41;;;11.84;100.00
72438;BME280;60444;43.534;-5.674;2024-01-06T10:13:52;102334.16;;;11.80;100.00
72438;BME280;60444;43.534;-5.674;2024-01-06T10:16:19;102344.03;;;11.82;100.00
72438;BME280;60444;43.534;-5.674;2024-01-06T10:18:45;102350.16;;;11.89;100.00
72438;BME280;60444;43.534;-5.674;2024-01-06T10:21:11;102360.91;;;11.92;100.00
72438;BME280;60444;43.534;-5.674;2024-01-06T10:23:37;102344.06;;;11.81;100.00
72438;BME280;60444;43.534;-5.674;2024-01-06T10:26:03;102362.59;;;11.96;100.00
72438;BME280;60444;43.534;-5.674;2024-01-06T10:28:28;102335.81;;;11.85;100.00
72438;BME280;60444;43.534;-5.674;2024-01-06T10:30:57;102360.56;;;12.04;100.00
72438;BME280;60444;43.534;-5.674;2024-01-06T10:33:25;102345.19;;;12.03;100.00
72438;BME280;60444;43.534;-5.674;2024-01-06T10:35:53;102360.56;;;12.04;100.00
72438;BME280;60444;43.534;-5.674;2024-01-06T10:38:22;102351.75;;;11.96;100.00
72438;BME280;60444;43.534;-5.674;2024-01-06T10:43:32;102338.34;;;11.91;100.00
72438;BME280;60444;43.534;-5.674;2024-01-06T10:46:02;102366.00;;;12.02;100.00
72438;BME280;60444;43.534;-5.674;2024-01-06T10:48:31;102366.00;;;12.02;100.00
72438;BME280;60444;43.534;-5.674;2024-01-06T10:50:58;102351.69;;;11.97;100.00
72438;BME280;60444;43.534;-5.674;2024-01-06T10:53:26;102365.06;;;12.03;100.00
72438;BME280;60444;43.534;-5.674;2024-01-06T10:55:52;102376.63;;;12.10;100.00
72438;BME280;60444;43.534;-5.674;2024-01-06T10:58:19;102364.97;;;12.06;100.00
72438;BME280;60444;43.534;-5.674;2024-01-06T11:00:47;102330.28;;;11.88;100.00
72438;BME280;60444;43.534;-5.674;2024-01-06T11:03:13;102365.81;;;12.08;100.00
72438;BME280;60444;43.534;-5.674;2024-01-06T11:05:41;102360.34;;;12.10;100.00
72438;BME280;60444;43.534;-5.674;2024-01-06T11:08:07;102355.63;;;12.16;100.00
72438;BME280;60444;43.534;-5.674;2024-01-06T11:10:36;102344.88;;;12.13;100.00
72438;BME280;60444;43.534;-5.674;2024-01-06T11:13:12;102346.38;;;12.23;100.00
72438;BME280;60444;43.534;-5.674;2024-01-06T11:15:46;102355.25;;;12.28;100.00
72438;BME280;60444;43.534;-5.674;2024-01-06T11:18:38;102349.72;;;12.31;100.00
72438;BME280;60444;43.534;-5.674;2024-01-06T11:21:22;102352.25;;;12.37;100.00
72438;BME280;60444;43.534;-5.674;2024-01-06T11:24:19;102344.00;;;12.40;100.00
72438;BME280;60444;43.534;-5.674;2024-01-06T11:26:52;102346.56;;;12.45;100.00
72438;BME280;60444;43.534;-5.674;2024-01-06T11:29:20;102344.47;;;12.55;100.00
72438;BME280;60444;43.534;-5.674;2024-01-06T11:32:31;102324.69;;;12.49;100.00
72438;BME280;60444;43.534;-5.674;2024-01-06T11:35:11;102323.06;;;12.44;100.00
72438;BME280;60444;43.534;-5.674;2024-01-06T11:45:28;102329.03;;;12.55;100.00
72438;BME280;60444;43.534;-5.674;2024-01-06T11:47:59;102328.97;;;12.57;100.00
72438;BME280;60444;43.534;-5.674;2024-01-06T11:50:38;102329.03;;;12.55;100.00
72438;BME280;60444;43.534;-5.674;2024-01-06T11:53:04;102308.53;;;12.46;100.00
72438;BME280;60444;43.534;-5.674;2024-01-06T11:55:31;102302.06;;;12.50;100.00
72438;BME280;60444;43.534;-5.674;2024-01-06T11:58:00;102327.72;;;12.68;100.00
72438;BME280;60444;43.534;-5.674;2024-01-06T12:00:32;102328.50;;;12.72;100.00
72438;BME280;60444;43.534;-5.674;2024-01-06T12:02:58;102302.59;;;12.62;100.00
72438;BME280;60444;43.534;-5.674;2024-01-06T12:05:24;102325.16;;;12.64;100.00
72438;BME280;60444;43.534;-5.674;2024-01-06T12:08:02;102324.03;;;12.69;100.00
72438;BME280;60444;43.534;-5.674;2024-01-06T12:10:32;102313.22;;;12.68;100.00
72438;BME280;60444;43.534;-5.674;2024-01-06T12:13:04;102300.97;;;12.56;100.00
72438;BME280;60444;43.534;-5.674;2024-01-06T12:15:32;102321.59;;;12.62;100.00
72438;BME280;60444;43.534;-5.674;2024-01-06T12:17:58;102286.94;;;12.42;100.00
72438;BME280;60444;43.534;-5.674;2024-01-06T12:20:25;102295.00;;;12.45;100.00
72438;BME280;60444;43.534;-5.674;2024-01-06T12:22:52;102311.91;;;12.53;100.00
72438;BME280;60444;43.534;-5.674;2024-01-06T12:25:18;102309.31;;;12.50;100.00
72438;BME280;60444;43.534;-5.674;2024-01-06T12:27:48;102290.50;;;12.44;100.00
72438;BME280;60444;43.534;-5.674;2024-01-06T12:30:15;102306.50;;;12.53;100.00
72438;BME280;60444;43.534;-5.674;2024-01-06T12:32:42;102296.63;;;12.50;100.00
72438;BME280;60444;43.534;-5.674;2024-01-06T12:35:09;102312.69;;;12.57;100.00
72438;BME280;60444;43.534;-5.674;2024-01-06T12:37:35;102287.78;;;12.45;100.00